Roy, Washington
Current Conditions -  °F | °C
As of 3:03 PM on Tuesday 27 Jan 2015 (Local Time) from KGRF Reporting Station
Broken Clouds Broken Clouds  
Wind Chill: 54°   Ceiling: 1400
Heat Index: 54°   Visibility: 10mi
Dew Point: 52°   Wind: 5mph
Humidity: 94%   Direction: 170°S
Pressure: 30.1"   Gusts: NA
Location:  47°N, 122.54°W
Report Text: KGRF 272303Z AUTO 17004KT 10SM BKN014 12/11 A3010 RMK AO2
Loading
Personal Weather Stations






























Interactive Weather Map New forecast layout! Learn more

10-Day Weather Forecast

Advertisements
Track Severe Weather on mobile